createdAt,value
2023-04-21T00:00:16.918Z,7.40
2023-04-21T00:02:46.778Z,7.50
2023-04-21T00:05:14.524Z,7.60
2023-04-21T00:07:42.116Z,7.70
2023-04-21T00:10:11.271Z,7.70
2023-04-21T00:12:40.088Z,7.70
2023-04-21T00:15:08.238Z,7.70
2023-04-21T00:17:36.007Z,7.70
2023-04-21T00:20:05.137Z,7.90
2023-04-21T00:22:33.135Z,7.80
2023-04-21T00:25:01.087Z,7.70
2023-04-21T00:27:28.696Z,7.60
2023-04-21T00:29:56.193Z,7.60
2023-04-21T00:32:23.702Z,7.70
2023-04-21T00:34:51.396Z,7.80
2023-04-21T00:37:19.332Z,7.90
2023-04-21T00:39:47.087Z,8.00
2023-04-21T00:42:17.280Z,8.00
2023-04-21T00:44:45.066Z,8.00
2023-04-21T00:47:13.170Z,8.00
2023-04-21T00:49:40.772Z,7.90
2023-04-21T00:52:09.567Z,8.00
2023-04-21T00:54:37.509Z,7.90
2023-04-21T00:57:05.290Z,7.80
2023-04-21T00:59:32.775Z,7.90
2023-04-21T01:02:00.878Z,7.80
2023-04-21T01:04:29.341Z,7.60
2023-04-21T01:06:56.944Z,7.60
2023-04-21T01:09:24.618Z,7.70
2023-04-21T01:12:11.884Z,7.70
2023-04-21T01:14:40.994Z,7.60
2023-04-21T01:17:08.950Z,7.70
2023-04-21T01:19:40.345Z,7.70
2023-04-21T01:22:12.801Z,7.70
2023-04-21T01:24:41.588Z,7.60
2023-04-21T01:27:11.746Z,7.70
2023-04-21T01:29:41.081Z,7.70
2023-04-21T01:32:19.951Z,7.80
2023-04-21T01:34:48.235Z,7.80
2023-04-21T01:37:18.627Z,7.80
2023-04-21T01:39:54.419Z,7.70
2023-04-21T01:42:24.596Z,7.60
2023-04-21T01:44:53.905Z,7.60
2023-04-21T01:47:22.402Z,7.50
2023-04-21T01:49:50.249Z,7.50
2023-04-21T01:52:17.805Z,7.60
2023-04-21T01:54:45.286Z,7.70
2023-04-21T01:57:12.883Z,7.60
2023-04-21T01:59:40.651Z,7.60
2023-04-21T02:02:08.780Z,7.70
2023-04-21T02:04:37.122Z,7.50
2023-04-21T02:07:04.772Z,7.40
2023-04-21T02:09:32.348Z,7.50
2023-04-21T02:12:00.526Z,7.60
2023-04-21T02:14:28.192Z,7.50
2023-04-21T02:16:56.428Z,7.60
2023-04-21T02:19:24.761Z,7.60
2023-04-21T02:21:52.233Z,7.60
2023-04-21T02:24:19.709Z,7.60
2023-04-21T02:26:47.553Z,7.60
2023-04-21T02:29:15.007Z,7.60
2023-04-21T02:31:57.341Z,7.60
2023-04-21T02:34:28.596Z,7.60
2023-04-21T02:36:56.335Z,7.60
2023-04-21T02:39:23.852Z,7.60
2023-04-21T02:41:51.614Z,7.50
2023-04-21T02:44:19.362Z,7.70
2023-04-21T02:46:46.988Z,7.80
2023-04-21T02:49:14.523Z,7.80
2023-04-21T02:51:42.065Z,7.70
2023-04-21T02:54:09.613Z,7.70
2023-04-21T02:56:37.268Z,7.80
2023-04-21T02:59:04.884Z,7.80
2023-04-21T03:01:32.488Z,7.80
2023-04-21T03:03:59.977Z,7.70
2023-04-21T03:06:28.525Z,7.70
2023-04-21T03:08:56.853Z,7.60
2023-04-21T03:11:24.608Z,7.60
2023-04-21T03:13:52.114Z,7.80
2023-04-21T03:16:19.994Z,7.70
2023-04-21T03:18:48.356Z,7.80
2023-04-21T03:21:16.034Z,7.70
2023-04-21T03:23:43.745Z,7.70
2023-04-21T03:26:11.481Z,7.60
2023-04-21T03:28:39.277Z,7.60
2023-04-21T03:31:06.714Z,7.80
2023-04-21T03:33:34.451Z,7.70
2023-04-21T03:36:02.254Z,7.70
2023-04-21T03:38:30.161Z,7.60
2023-04-21T03:40:57.697Z,7.50
2023-04-21T03:43:25.205Z,7.50
2023-04-21T03:45:52.707Z,7.30
2023-04-21T03:48:20.765Z,7.30
2023-04-21T03:50:48.637Z,7.20
2023-04-21T03:53:16.972Z,7.40
2023-04-21T03:55:44.442Z,7.50
2023-04-21T03:58:12.153Z,7.50
2023-04-21T04:00:39.606Z,7.40
2023-04-21T04:03:07.816Z,7.20
2023-04-21T04:05:39.011Z,7.20
2023-04-21T04:08:06.696Z,7.00
2023-04-21T04:10:34.138Z,7.00
2023-04-21T04:13:01.744Z,6.90
2023-04-21T04:15:29.272Z,6.90
2023-04-21T04:17:56.900Z,6.90
2023-04-21T04:20:24.898Z,6.90
2023-04-21T04:22:52.396Z,6.80
2023-04-21T04:25:19.969Z,6.80
2023-04-21T04:27:49.720Z,6.70
2023-04-21T04:30:17.263Z,6.50
2023-04-21T04:32:45.074Z,6.40
2023-04-21T04:35:13.748Z,6.60
2023-04-21T04:37:41.395Z,6.50
2023-04-21T04:40:10.973Z,6.50
2023-04-21T04:42:40.304Z,6.40
2023-04-21T04:45:09.399Z,6.40
2023-04-21T04:47:37.373Z,6.40
2023-04-21T04:50:06.043Z,6.40
2023-04-21T04:52:33.651Z,6.30
2023-04-21T04:55:01.198Z,6.20
2023-04-21T04:57:28.835Z,6.20
2023-04-21T04:59:56.584Z,6.40
2023-04-21T05:02:24.664Z,6.50
2023-04-21T05:04:52.575Z,6.50
2023-04-21T05:07:20.297Z,6.50
2023-04-21T05:09:47.832Z,6.40
2023-04-21T05:12:15.558Z,6.20
2023-04-21T05:14:43.004Z,6.20
2023-04-21T05:17:10.655Z,6.30
2023-04-21T05:19:38.341Z,6.40
2023-04-21T05:22:08.778Z,6.50
2023-04-21T05:24:36.552Z,6.50
2023-04-21T05:27:05.991Z,6.50
2023-04-21T05:29:34.449Z,6.70
2023-04-21T05:32:02.221Z,6.90
2023-04-21T05:34:30.111Z,7.40
2023-04-21T05:36:57.746Z,8.00
2023-04-21T05:39:25.396Z,8.80
2023-04-21T05:41:52.864Z,9.70
2023-04-21T05:44:20.822Z,10.70
2023-04-21T05:46:48.420Z,10.40
2023-04-21T05:49:15.998Z,10.40
2023-04-21T05:51:43.476Z,9.90
2023-04-21T05:54:11.179Z,10.20
2023-04-21T05:56:38.834Z,10.00
2023-04-21T05:59:07.190Z,10.40
2023-04-21T06:01:34.771Z,10.90
2023-04-21T06:04:03.462Z,10.90
2023-04-21T06:06:32.004Z,10.90
2023-04-21T06:08:59.795Z,11.30
2023-04-21T06:11:27.480Z,11.00
2023-04-21T06:13:58.472Z,11.90
2023-04-21T06:16:27.132Z,12.00
2023-04-21T06:18:54.714Z,13.30
2023-04-21T06:21:22.524Z,14.40
2023-04-21T06:23:50.434Z,12.40
2023-04-21T06:26:18.234Z,12.40
2023-04-21T06:28:46.683Z,11.90
2023-04-21T06:31:15.763Z,11.70
2023-04-21T06:33:43.848Z,12.10
2023-04-21T06:36:11.431Z,13.20
2023-04-21T06:38:41.710Z,13.00
2023-04-21T06:41:10.099Z,13.20
2023-04-21T06:43:38.152Z,12.70
2023-04-21T06:46:05.924Z,12.80
2023-04-21T06:48:33.444Z,12.30
2023-04-21T06:51:02.827Z,12.90
2023-04-21T06:53:30.354Z,14.50
2023-04-21T06:55:57.925Z,13.70
2023-04-21T06:58:25.673Z,14.90
2023-04-21T07:00:53.364Z,13.50
2023-04-21T07:03:21.357Z,13.70
2023-04-21T07:05:49.417Z,12.30
2023-04-21T07:08:16.928Z,12.50
2023-04-21T07:10:44.445Z,13.30
2023-04-21T07:13:11.911Z,13.50
2023-04-21T07:15:39.521Z,13.40
2023-04-21T07:18:07.119Z,14.10
2023-04-21T07:20:34.643Z,14.50
2023-04-21T07:23:02.191Z,14.80
2023-04-21T07:25:29.720Z,15.70
2023-04-21T07:27:57.268Z,15.70
2023-04-21T07:30:24.925Z,15.90
2023-04-21T07:32:52.562Z,15.40
2023-04-21T07:35:20.091Z,15.80
2023-04-21T07:37:47.675Z,17.50
2023-04-21T07:40:15.928Z,17.00
2023-04-21T07:42:43.630Z,19.80
2023-04-21T07:45:12.139Z,20.00
2023-04-21T07:47:39.740Z,18.40
2023-04-21T07:50:08.128Z,19.60
2023-04-21T07:52:35.680Z,19.00
2023-04-21T07:55:03.568Z,19.60
2023-04-21T07:57:33.997Z,17.90
2023-04-21T08:00:01.435Z,18.30
2023-04-21T08:02:29.160Z,18.50
2023-04-21T08:04:56.782Z,18.40
2023-04-21T08:07:24.631Z,19.70
2023-04-21T08:09:52.238Z,21.00
2023-04-21T08:12:19.713Z,21.50
2023-04-21T08:14:47.209Z,21.50
2023-04-21T08:17:14.750Z,22.80
2023-04-21T08:19:42.450Z,24.40
2023-04-21T08:22:10.484Z,20.70
2023-04-21T08:24:38.028Z,20.10
2023-04-21T08:27:05.521Z,20.60
2023-04-21T08:29:33.031Z,19.80
2023-04-21T08:32:00.644Z,21.40
2023-04-21T08:34:28.245Z,20.20
2023-04-21T08:36:56.122Z,19.20
2023-04-21T08:39:23.980Z,19.80
2023-04-21T08:41:52.683Z,21.70
2023-04-21T08:44:21.767Z,23.50
2023-04-21T08:46:52.867Z,22.30
2023-04-21T08:49:23.696Z,22.10
2023-04-21T08:51:51.563Z,23.20
2023-04-21T08:54:19.164Z,23.20
2023-04-21T08:56:48.501Z,20.80
2023-04-21T08:59:16.001Z,21.90
2023-04-21T09:02:16.357Z,23.60
2023-04-21T09:04:49.275Z,26.00
2023-04-21T09:07:37.752Z,22.10
2023-04-21T09:10:06.253Z,22.20
2023-04-21T09:12:33.840Z,24.40
2023-04-21T09:15:05.733Z,25.50
2023-04-21T09:17:34.012Z,23.20
2023-04-21T09:20:19.598Z,20.80
2023-04-21T09:22:49.964Z,19.90
2023-04-21T09:25:21.177Z,21.70
2023-04-21T09:27:49.192Z,20.90
2023-04-21T09:30:20.169Z,21.60
2023-04-21T09:32:47.760Z,24.00
2023-04-21T09:35:15.581Z,24.10
2023-04-21T09:37:46.026Z,25.10
2023-04-21T09:40:15.461Z,22.90
2023-04-21T09:42:44.677Z,24.90
2023-04-21T09:47:51.782Z,22.90
2023-04-21T09:50:41.879Z,22.40
2023-04-21T09:53:13.288Z,22.00
2023-04-21T09:55:43.568Z,22.20
2023-04-21T09:58:16.539Z,22.50
2023-04-21T10:00:44.591Z,21.90
2023-04-21T10:03:14.223Z,22.00
2023-04-21T10:05:43.040Z,23.30
2023-04-21T10:08:12.220Z,24.70
2023-04-21T10:10:40.593Z,24.90
2023-04-21T10:13:14.763Z,24.70
2023-04-21T10:15:42.863Z,25.80
2023-04-21T10:18:16.200Z,26.50
2023-04-21T10:21:07.768Z,25.70
2023-04-21T10:23:38.110Z,25.70
2023-04-21T10:26:19.818Z,24.20
2023-04-21T10:28:56.660Z,24.60
2023-04-21T10:31:35.573Z,25.40
2023-04-21T10:34:08.711Z,22.40
2023-04-21T10:36:42.929Z,23.20
2023-04-21T10:39:15.791Z,24.00
2023-04-21T10:41:46.637Z,24.50
2023-04-21T10:44:16.476Z,22.20
2023-04-21T10:46:48.826Z,23.10
2023-04-21T10:49:32.856Z,21.20
2023-04-21T10:52:00.514Z,20.10
2023-04-21T10:54:42.351Z,20.50
2023-04-21T10:57:12.242Z,20.90
2023-04-21T10:59:40.541Z,21.10
2023-04-21T11:02:09.191Z,22.00
2023-04-21T11:04:37.480Z,22.00
2023-04-21T11:07:12.964Z,21.60
2023-04-21T11:09:41.791Z,21.40
2023-04-21T11:12:11.614Z,21.70
2023-04-21T11:14:41.527Z,20.70
2023-04-21T11:17:13.955Z,20.90
2023-04-21T11:19:42.553Z,21.80
2023-04-21T11:22:10.016Z,21.90
2023-04-21T11:24:37.671Z,22.40
2023-04-21T11:27:08.790Z,21.60
2023-04-21T11:29:36.286Z,21.90
2023-04-21T11:32:07.427Z,23.10
2023-04-21T11:34:37.727Z,23.80
2023-04-21T11:37:08.149Z,23.20
2023-04-21T11:39:35.712Z,22.60
2023-04-21T11:42:03.387Z,22.00
2023-04-21T11:44:37.761Z,20.70
2023-04-21T11:47:23.051Z,21.10
2023-04-21T11:50:02.149Z,21.20
2023-04-21T11:52:34.520Z,21.30
2023-04-21T11:55:15.523Z,21.20
2023-04-21T11:57:43.243Z,21.30
2023-04-21T12:00:13.515Z,18.80
2023-04-21T12:02:41.431Z,18.20
2023-04-21T12:05:12.960Z,17.90
2023-04-21T12:07:52.074Z,17.60
2023-04-21T12:10:21.202Z,18.00
2023-04-21T12:12:49.101Z,17.40
2023-04-21T12:15:22.954Z,16.90
2023-04-21T12:17:52.446Z,17.30
2023-04-21T12:20:22.165Z,17.60
2023-04-21T12:22:50.161Z,17.70
2023-04-21T12:25:17.868Z,17.70
2023-04-21T12:27:49.641Z,17.70
2023-04-21T12:30:17.397Z,17.00
2023-04-21T12:32:44.976Z,16.70
2023-04-21T12:35:12.614Z,17.00
2023-04-21T12:37:40.273Z,17.00
2023-04-21T12:40:08.590Z,17.30
2023-04-21T12:42:38.174Z,17.50
2023-04-21T12:45:06.990Z,17.40
2023-04-21T12:47:35.630Z,17.60
2023-04-21T12:50:03.792Z,17.20
2023-04-21T12:52:31.344Z,17.20
2023-04-21T12:54:58.977Z,17.30
2023-04-21T12:57:27.077Z,17.90
2023-04-21T12:59:55.246Z,18.30
2023-04-21T13:02:23.003Z,18.10
2023-04-21T13:04:50.717Z,18.70
2023-04-21T13:07:21.411Z,19.10
2023-04-21T13:09:48.992Z,19.20
2023-04-21T13:12:17.469Z,18.10
2023-04-21T13:14:44.957Z,18.50
2023-04-21T13:17:13.116Z,18.40
2023-04-21T13:19:41.092Z,17.80
2023-04-21T13:22:08.606Z,17.90
2023-04-21T13:24:36.046Z,18.10
2023-04-21T13:27:03.683Z,18.60
2023-04-21T13:29:34.210Z,18.90
2023-04-21T13:32:06.665Z,19.10
2023-04-21T13:34:34.576Z,19.10
2023-04-21T13:37:02.517Z,19.00
2023-04-21T13:39:30.478Z,18.70
2023-04-21T13:41:58.484Z,18.90
2023-04-21T13:44:26.153Z,18.20
2023-04-21T13:46:54.228Z,17.70
2023-04-21T13:49:21.827Z,17.30
2023-04-21T13:51:49.367Z,17.70
2023-04-21T13:54:17.147Z,18.20
2023-04-21T13:56:44.793Z,17.60
2023-04-21T13:59:14.943Z,17.90
2023-04-21T14:01:42.681Z,18.20
2023-04-21T14:04:10.647Z,18.60
2023-04-21T14:06:38.645Z,18.80
2023-04-21T14:09:06.623Z,18.80
2023-04-21T14:11:34.185Z,18.70
2023-04-21T14:14:09.565Z,18.50
2023-04-21T14:16:38.544Z,18.50
2023-04-21T14:19:06.876Z,18.40
2023-04-21T14:21:34.907Z,18.60
2023-04-21T14:24:02.421Z,18.70
2023-04-21T14:26:30.214Z,18.70
2023-04-21T14:28:58.910Z,18.40
2023-04-21T14:31:26.531Z,18.10
2023-04-21T14:33:54.414Z,17.70
2023-04-21T14:36:22.021Z,17.80
2023-04-21T14:38:50.666Z,18.30
2023-04-21T14:41:18.387Z,18.40
2023-04-21T14:43:47.587Z,18.60
2023-04-21T14:46:16.603Z,19.00
2023-04-21T14:48:44.964Z,19.00
2023-04-21T14:51:12.646Z,19.10
2023-04-21T14:53:40.845Z,19.50
2023-04-21T14:56:08.662Z,19.30
2023-04-21T14:58:36.170Z,19.10
2023-04-21T15:01:03.873Z,19.40
2023-04-21T15:03:32.123Z,19.60
2023-04-21T15:05:59.717Z,19.60
2023-04-21T15:08:27.780Z,19.40
2023-04-21T15:10:56.484Z,18.90
2023-04-21T15:13:24.234Z,18.90
2023-04-21T15:15:52.266Z,18.60
2023-04-21T15:18:21.211Z,18.00
2023-04-21T15:20:48.748Z,18.00
2023-04-21T15:23:16.709Z,18.20
2023-04-21T15:25:44.264Z,18.20
2023-04-21T15:28:13.132Z,18.40
2023-04-21T15:30:40.784Z,18.70
2023-04-21T15:33:08.464Z,18.70
2023-04-21T15:35:36.503Z,18.60
2023-04-21T15:38:04.684Z,18.60
2023-04-21T15:40:32.413Z,18.60
2023-04-21T15:42:59.915Z,18.40
2023-04-21T15:45:27.385Z,18.60
2023-04-21T15:47:55.341Z,18.60
2023-04-21T15:50:22.925Z,18.40
2023-04-21T15:52:50.469Z,18.40
2023-04-21T15:55:18.975Z,18.70
2023-04-21T15:57:46.442Z,18.80
2023-04-21T16:00:14.809Z,19.10
2023-04-21T16:02:42.712Z,19.00
2023-04-21T16:05:10.469Z,17.80
2023-04-21T16:07:38.036Z,16.60
2023-04-21T16:10:06.885Z,15.80
2023-04-21T16:12:34.635Z,14.80
2023-04-21T16:15:16.022Z,14.00
2023-04-21T16:17:48.959Z,13.80
2023-04-21T16:20:16.614Z,13.80
2023-04-21T16:22:44.236Z,13.80
2023-04-21T16:25:17.319Z,13.90
2023-04-21T16:27:45.866Z,14.20
2023-04-21T16:30:13.498Z,14.10
2023-04-21T16:32:41.138Z,14.50
2023-04-21T16:35:09.101Z,14.70
2023-04-21T16:37:38.479Z,14.80
2023-04-21T16:40:07.869Z,14.90
2023-04-21T16:42:36.281Z,15.00
2023-04-21T16:45:05.141Z,15.00
2023-04-21T16:47:38.680Z,15.10
2023-04-21T16:50:08.897Z,15.10
2023-04-21T16:52:36.671Z,15.10
2023-04-21T16:55:04.303Z,15.10
2023-04-21T16:57:32.870Z,15.10
2023-04-21T17:00:01.229Z,15.10
2023-04-21T17:02:29.800Z,15.10
2023-04-21T17:04:57.546Z,15.10
2023-04-21T17:07:25.050Z,15.00
2023-04-21T17:09:52.658Z,15.00
2023-04-21T17:12:20.237Z,15.00
2023-04-21T17:14:48.700Z,15.00
2023-04-21T17:17:16.942Z,15.10
2023-04-21T17:19:44.581Z,15.00
2023-04-21T17:22:12.116Z,15.00
2023-04-21T17:24:51.588Z,14.90
2023-04-21T17:27:21.330Z,14.90
2023-04-21T17:29:49.214Z,14.80
2023-04-21T17:32:16.977Z,14.70
2023-04-21T17:34:44.673Z,14.50
2023-04-21T17:37:12.221Z,14.40
2023-04-21T17:39:39.760Z,14.30
2023-04-21T17:42:07.527Z,14.40
2023-04-21T17:44:35.680Z,14.40
2023-04-21T17:47:08.346Z,14.30
2023-04-21T17:49:37.063Z,14.30
2023-04-21T17:52:06.060Z,14.20
2023-04-21T17:54:33.654Z,14.10
2023-04-21T17:57:02.362Z,14.00
2023-04-21T17:59:30.485Z,13.90
2023-04-21T18:01:59.176Z,13.80
2023-04-21T18:04:28.004Z,13.80
2023-04-21T18:06:55.857Z,13.80
2023-04-21T18:09:23.848Z,13.80
2023-04-21T18:11:52.384Z,13.80
2023-04-21T18:14:20.894Z,13.70
2023-04-21T18:16:48.733Z,13.80
2023-04-21T18:19:18.502Z,13.90
2023-04-21T18:21:46.104Z,14.00
2023-04-21T18:24:13.599Z,14.10
2023-04-21T18:26:41.281Z,14.30
2023-04-21T18:29:08.798Z,14.40
2023-04-21T18:31:36.437Z,13.80
2023-04-21T18:34:03.992Z,13.40
2023-04-21T18:36:33.711Z,13.20
2023-04-21T18:39:02.058Z,12.90
2023-04-21T18:41:29.726Z,12.50
2023-04-21T18:43:57.271Z,12.30
2023-04-21T18:46:24.827Z,12.30
2023-04-21T18:48:53.508Z,12.20
2023-04-21T18:51:21.052Z,12.20
2023-04-21T18:53:48.575Z,12.20
2023-04-21T18:56:16.273Z,12.00
2023-04-21T18:58:43.808Z,12.10
2023-04-21T19:01:11.639Z,11.90
2023-04-21T19:03:39.349Z,11.80
2023-04-21T19:06:06.958Z,11.70
2023-04-21T19:08:41.999Z,11.90
2023-04-21T19:11:15.969Z,12.00
2023-04-21T19:13:43.654Z,12.10
2023-04-21T19:16:12.378Z,12.00
2023-04-21T19:18:40.250Z,12.10
2023-04-21T19:21:13.136Z,12.00
2023-04-21T19:23:41.986Z,12.00
2023-04-21T19:26:12.026Z,12.00
2023-04-21T19:28:40.658Z,12.10
2023-04-21T19:31:08.973Z,12.20
2023-04-21T19:33:36.564Z,12.20
2023-04-21T19:36:04.355Z,12.30
2023-04-21T19:38:32.489Z,12.30
2023-04-21T19:41:00.074Z,12.30
2023-04-21T19:43:27.714Z,12.30
2023-04-21T19:45:55.356Z,12.20
2023-04-21T19:48:23.251Z,12.30
2023-04-21T19:50:51.165Z,12.40
2023-04-21T19:53:18.716Z,12.40
2023-04-21T19:55:47.164Z,12.50
2023-04-21T19:58:19.781Z,12.30
2023-04-21T20:00:52.659Z,12.20
2023-04-21T20:03:20.717Z,12.20
2023-04-21T20:05:50.530Z,12.20
2023-04-21T20:08:18.150Z,12.10
2023-04-21T20:10:45.682Z,11.90
2023-04-21T20:13:13.929Z,11.90
2023-04-21T20:15:42.221Z,11.70
2023-04-21T20:18:09.850Z,11.30
2023-04-21T20:20:37.602Z,11.30
2023-04-21T20:23:06.069Z,11.40
2023-04-21T20:25:33.907Z,11.60
2023-04-21T20:28:01.750Z,11.30
2023-04-21T20:30:29.246Z,11.40
2023-04-21T20:32:56.744Z,11.50
2023-04-21T20:35:24.239Z,11.00
2023-04-21T20:37:53.657Z,10.60
2023-04-21T20:40:21.822Z,10.60
2023-04-21T20:42:49.552Z,10.80
2023-04-21T20:45:17.540Z,11.10
2023-04-21T20:47:45.067Z,11.20
2023-04-21T20:50:12.773Z,11.20
2023-04-21T20:52:40.358Z,10.90
2023-04-21T20:55:08.173Z,10.50
2023-04-21T20:57:35.875Z,10.20
2023-04-21T21:00:06.092Z,10.00
2023-04-21T21:02:33.671Z,9.90
2023-04-21T21:05:01.385Z,9.90
2023-04-21T21:07:29.058Z,9.90
2023-04-21T21:09:56.724Z,9.90
2023-04-21T21:12:24.393Z,9.90
2023-04-21T21:14:51.921Z,9.80
2023-04-21T21:17:19.473Z,9.80
2023-04-21T21:19:46.940Z,9.70
2023-04-21T21:22:14.612Z,9.70
2023-04-21T21:24:42.113Z,9.70
2023-04-21T21:27:09.681Z,9.70
2023-04-21T21:29:37.674Z,9.60
2023-04-21T21:32:05.435Z,9.60
2023-04-21T21:34:33.161Z,9.40
2023-04-21T21:37:00.978Z,9.40
2023-04-21T21:39:28.518Z,9.30
2023-04-21T21:41:57.148Z,9.30
2023-04-21T21:44:24.711Z,9.50
2023-04-21T21:46:52.328Z,9.60
2023-04-21T21:49:19.898Z,9.60
2023-04-21T21:51:47.401Z,9.60
2023-04-21T21:54:14.968Z,9.50
2023-04-21T21:56:42.913Z,9.10
2023-04-21T21:59:10.618Z,9.00
2023-04-21T22:01:38.246Z,8.90
2023-04-21T22:04:06.435Z,8.90
2023-04-21T22:06:35.207Z,9.00
2023-04-21T22:09:02.986Z,9.10
2023-04-21T22:11:31.161Z,9.20
2023-04-21T22:14:05.154Z,9.30
2023-04-21T22:16:43.046Z,9.30
2023-04-21T22:19:10.860Z,9.30
2023-04-21T22:21:38.715Z,9.30
2023-04-21T22:24:06.300Z,9.20
2023-04-21T22:26:33.819Z,9.00
2023-04-21T22:29:01.375Z,9.00
2023-04-21T22:31:29.059Z,8.70
2023-04-21T22:33:56.826Z,8.70
2023-04-21T22:36:24.645Z,8.60
2023-04-21T22:38:52.422Z,8.60
2023-04-21T22:41:21.128Z,8.40
2023-04-21T22:43:48.797Z,8.40
2023-04-21T22:46:16.429Z,8.40
2023-04-21T22:48:46.763Z,8.30
2023-04-21T22:51:21.276Z,8.10
2023-04-21T22:53:48.746Z,8.10
2023-04-21T22:56:16.664Z,8.20
2023-04-21T22:58:44.209Z,8.10
2023-04-21T23:01:11.995Z,8.10
2023-04-21T23:03:39.693Z,8.10
2023-04-21T23:06:08.145Z,7.90
2023-04-21T23:08:36.882Z,7.90
2023-04-21T23:11:04.534Z,7.80
2023-04-21T23:13:35.800Z,7.90
2023-04-21T23:16:03.885Z,7.60
2023-04-21T23:18:32.121Z,7.80
2023-04-21T23:20:59.970Z,7.80
2023-04-21T23:23:27.648Z,7.90
2023-04-21T23:25:55.127Z,8.10
2023-04-21T23:28:24.125Z,8.10
2023-04-21T23:30:51.817Z,8.10
2023-04-21T23:33:19.366Z,8.20
2023-04-21T23:35:47.409Z,8.40
2023-04-21T23:38:15.166Z,8.60
2023-04-21T23:40:42.662Z,8.70
2023-04-21T23:43:10.279Z,8.70
2023-04-21T23:45:37.877Z,8.50
2023-04-21T23:48:05.533Z,8.60
2023-04-21T23:50:33.509Z,8.50
2023-04-21T23:53:01.239Z,8.60
2023-04-21T23:55:29.852Z,8.60
2023-04-21T23:57:57.404Z,8.50
